CST,Max TemperatureF,Mean TemperatureF,Min TemperatureF,Max Dew PointF,MeanDew PointF,Min DewpointF,Max Humidity, Mean Humidity, Min Humidity, Max Sea Level PressureIn, Mean Sea Level PressureIn, Min Sea Level PressureIn, Max VisibilityMiles, Mean VisibilityMiles, Min VisibilityMiles, Max Wind SpeedMPH, Mean Wind SpeedMPH, Max Gust SpeedMPH,PrecipitationIn, CloudCover, Events, WindDirDegrees
2012-11-1,50,38,25,34,29,20,81,64,46,30.06,29.98,29.93,10,10,7,21,10,24,0.00,3,,334
2012-11-2,44,33,22,27,24,19,88,69,49,30.16,30.12,30.06,10,10,9,13,6,15,0.00,2,,60
2012-11-3,49,42,35,30,28,26,70,56,42,30.23,30.20,30.16,10,10,5,9,2,12,T,8,,30
2012-11-4,48,43,37,38,35,32,92,76,60,30.24,30.19,30.13,10,8,5,12,6,16,0.06,8,Rain,147
2012-11-5,43,40,37,37,36,33,92,81,70,30.20,30.14,30.02,7,4,2,13,7,16,0.06,8,Rain,142
2012-11-6,47,42,36,38,36,33,92,79,65,30.02,29.90,29.85,10,7,2,26,17,32,0.15,8,Rain,277
2012-11-7,44,37,29,34,31,27,92,75,57,30.15,30.11,30.01,10,10,10,15,6,18,0.00,6,,9
2012-11-8,57,43,28,37,33,26,92,70,47,30.11,30.02,29.95,10,10,9,23,11,28,0.00,0,,160
2012-11-9,56,45,33,41,38,31,96,78,59,29.99,29.93,29.85,10,7,4,18,10,23,0.00,4,,104
2012-11-10,76,62,48,55,49,42,93,68,43,29.83,29.66,29.54,10,7,2,35,18,44,0.01,4,Rain-Thunderstorm,154
2012-11-11,61,40,19,52,30,11,92,79,65,30.07,29.81,29.60,10,8,2,23,15,29,0.17,7,Rain,300
2012-11-12,29,24,18,16,14,11,77,65,53,30.38,30.18,30.03,10,10,7,26,14,33,T,4,Snow,275
2012-11-13,45,29,12,27,20,9,88,67,45,30.45,30.39,30.32,10,10,10,17,9,21,0.00,2,,178
2012-11-14,55,43,31,31,29,26,85,60,35,30.33,30.27,30.22,10,10,10,18,10,23,0.00,2,,192
2012-11-15,53,41,28,33,29,23,85,65,45,30.45,30.29,30.19,10,10,9,18,11,22,0.00,2,,276
2012-11-16,49,34,18,28,22,13,88,65,42,30.50,30.45,30.39,10,10,6,10,6,13,0.00,0,,170
2012-11-17,58,42,26,36,31,24,92,66,40,30.39,30.33,30.27,10,8,4,25,12,31,0.00,1,,161
2012-11-18,57,48,38,33,31,29,70,54,38,30.26,30.18,30.14,10,10,8,22,15,28,0.00,3,,160
2012-11-19,59,45,31,41,36,30,92,72,51,30.13,30.07,30.02,10,6,0,20,9,25,T,2,Fog-Rain,171
2012-11-20,56,43,30,39,32,27,100,72,43,30.20,30.15,30.08,10,5,0,13,7,15,0.00,0,Fog,293
2012-11-21,71,52,32,41,36,30,89,61,33,30.12,29.98,29.81,10,8,4,29,15,36,0.00,0,,191
2012-11-22,62,47,31,42,33,22,71,57,43,30.05,29.87,29.68,10,10,9,38,20,46,0.00,3,,270
2012-11-23,32,23,13,21,12,9,80,63,46,30.42,30.29,30.05,10,10,3,43,24,51,T,4,Snow,319
2012-11-24,28,18,8,18,12,5,91,72,53,30.39,30.15,29.86,10,10,10,18,8,22,0.00,3,,191
2012-11-25,35,28,21,22,19,16,81,69,56,30.20,30.00,29.84,10,10,10,21,10,23,0.00,2,,315
2012-11-26,25,17,8,18,6,2,84,64,44,30.48,30.38,30.20,10,10,10,22,11,26,0.00,2,,322
2012-11-27,34,20,6,17,11,2,80,61,41,30.43,30.30,30.19,10,10,9,22,9,25,0.00,2,,215
2012-11-28,41,27,12,23,17,10,92,70,48,30.43,30.32,30.17,10,6,0,12,6,14,0.00,2,Fog,249
2012-11-29,50,35,20,31,24,16,92,71,50,30.14,30.05,30.00,10,8,2,9,6,12,0.00,0,,136
2012-11-30,43,33,23,33,29,21,92,80,67,30.14,30.09,30.00,6,3,2,16,8,20,0.00,3,,88